createdAt,value
2023-04-25T00:01:21.123Z,17.30
2023-04-25T00:03:48.171Z,18.77
2023-04-25T00:06:15.299Z,22.33
2023-04-25T00:08:42.209Z,25.63
2023-04-25T00:11:08.893Z,19.40
2023-04-25T00:13:35.527Z,23.00
2023-04-25T00:16:03.900Z,17.77
2023-04-25T00:18:30.817Z,19.35
2023-04-25T00:20:57.470Z,24.13
2023-04-25T00:23:24.856Z,16.02
2023-04-25T00:25:51.855Z,16.93
2023-04-25T00:28:18.620Z,22.60
2023-04-25T00:30:45.318Z,19.15
2023-04-25T00:33:12.000Z,13.02
2023-04-25T00:35:39.533Z,17.05
2023-04-25T00:38:06.214Z,20.67
2023-04-25T00:40:32.937Z,11.63
2023-04-25T00:42:59.528Z,23.70
2023-04-25T00:45:30.584Z,15.50
2023-04-25T00:47:58.470Z,20.00
2023-04-25T00:50:25.850Z,21.53
2023-04-25T00:52:52.863Z,14.88
2023-04-25T00:55:20.477Z,18.77
2023-04-25T00:57:48.273Z,23.45
2023-04-25T01:00:15.697Z,20.92
2023-04-25T01:02:45.834Z,16.67
2023-04-25T01:05:13.095Z,17.13
2023-04-25T01:07:40.429Z,15.70
2023-04-25T01:10:07.778Z,16.05
2023-04-25T01:12:34.910Z,16.13
2023-04-25T01:15:01.704Z,16.23
2023-04-25T01:17:30.142Z,16.92
2023-04-25T01:19:56.914Z,20.70
2023-04-25T01:22:23.725Z,19.40
2023-04-25T01:24:50.662Z,20.55
2023-04-25T01:27:17.874Z,15.33
2023-04-25T01:29:44.804Z,19.27
2023-04-25T01:32:11.700Z,17.42
2023-04-25T01:34:38.543Z,18.48
2023-04-25T01:37:05.226Z,28.80
2023-04-25T01:39:32.043Z,17.67
2023-04-25T01:42:00.760Z,21.15
2023-04-25T01:44:27.509Z,21.95
2023-04-25T01:46:54.776Z,11.85
2023-04-25T01:49:21.671Z,11.48
2023-04-25T01:51:48.286Z,16.83
2023-04-25T01:54:15.201Z,12.60
2023-04-25T01:56:41.793Z,20.08
2023-04-25T01:59:08.421Z,14.73
2023-04-25T02:01:35.117Z,18.63
2023-04-25T02:04:02.168Z,16.67
2023-04-25T02:06:29.092Z,21.50
2023-04-25T02:08:55.692Z,13.65
2023-04-25T02:11:22.348Z,18.05
2023-04-25T02:13:49.113Z,19.17
2023-04-25T02:16:15.890Z,16.30
2023-04-25T02:18:42.575Z,20.15
2023-04-25T02:21:09.251Z,18.40
2023-04-25T02:23:36.307Z,16.38
2023-04-25T02:26:03.394Z,17.30
2023-04-25T02:28:30.019Z,15.77
2023-04-25T02:30:56.690Z,13.50
2023-04-25T02:33:23.320Z,19.42
2023-04-25T02:35:50.016Z,14.43
2023-04-25T02:38:16.663Z,21.38
2023-04-25T02:40:43.414Z,11.70
2023-04-25T02:43:10.031Z,10.52
2023-04-25T02:45:36.764Z,20.70
2023-04-25T02:48:04.696Z,15.15
2023-04-25T02:50:31.332Z,19.05
2023-04-25T02:52:58.096Z,15.77
2023-04-25T02:55:27.075Z,13.50
2023-04-25T02:57:56.294Z,18.88
2023-04-25T03:00:23.599Z,17.23
2023-04-25T03:02:50.430Z,15.90
2023-04-25T03:05:17.637Z,22.70
2023-04-25T03:07:45.081Z,15.32
2023-04-25T03:10:11.717Z,12.68
2023-04-25T03:12:38.636Z,18.08
2023-04-25T03:15:05.883Z,13.40
2023-04-25T03:17:32.538Z,18.87
2023-04-25T03:19:59.186Z,17.92
2023-04-25T03:22:25.772Z,17.48
2023-04-25T03:24:52.375Z,19.85
2023-04-25T03:27:19.032Z,16.23
2023-04-25T03:29:45.764Z,17.10
2023-04-25T03:32:12.600Z,16.67
2023-04-25T03:34:39.338Z,16.90
2023-04-25T03:37:05.981Z,16.83
2023-04-25T03:39:32.802Z,19.60
2023-04-25T03:41:59.451Z,14.10
2023-04-25T03:44:26.047Z,14.52
2023-04-25T03:46:52.620Z,12.57
2023-04-25T03:49:19.505Z,16.52
2023-04-25T03:51:46.469Z,12.23
2023-04-25T03:54:13.128Z,17.63
2023-04-25T03:56:39.759Z,13.15
2023-04-25T03:59:06.405Z,22.92
2023-04-25T04:01:33.035Z,9.75
2023-04-25T04:03:59.849Z,16.58
2023-04-25T04:06:26.657Z,11.87
2023-04-25T04:08:53.353Z,14.50
2023-04-25T04:11:21.480Z,14.88
2023-04-25T04:13:48.394Z,15.15
2023-04-25T04:16:15.292Z,11.98
2023-04-25T04:18:41.973Z,16.13
2023-04-25T04:21:08.607Z,15.48
2023-04-25T04:23:37.019Z,15.07
2023-04-25T04:26:04.907Z,14.00
2023-04-25T04:28:31.697Z,12.65
2023-04-25T04:30:58.636Z,10.23
2023-04-25T04:33:25.553Z,11.85
2023-04-25T04:35:54.346Z,13.20
2023-04-25T04:38:22.288Z,12.38
2023-04-25T04:40:49.073Z,11.43
2023-04-25T04:43:18.152Z,17.00
2023-04-25T04:45:45.584Z,10.27
2023-04-25T04:48:14.993Z,7.95
2023-04-25T04:50:43.652Z,13.75
2023-04-25T04:53:10.341Z,8.35
2023-04-25T04:55:36.969Z,11.20
2023-04-25T04:58:03.587Z,11.93
2023-04-25T05:00:31.037Z,8.95
2023-04-25T05:02:57.948Z,9.60
2023-04-25T05:05:25.209Z,10.30
2023-04-25T05:07:52.405Z,17.10
2023-04-25T05:10:20.382Z,8.60
2023-04-25T05:12:47.490Z,12.20
2023-04-25T05:15:15.045Z,13.38
2023-04-25T05:17:41.813Z,12.82
2023-04-25T05:20:10.439Z,10.13
2023-04-25T05:22:37.143Z,14.52
2023-04-25T05:25:04.596Z,10.13
2023-04-25T05:27:31.228Z,8.60
2023-04-25T05:29:57.831Z,7.50
2023-04-25T05:32:26.327Z,12.57
2023-04-25T05:34:53.452Z,6.18
2023-04-25T05:37:20.184Z,10.57
2023-04-25T05:39:46.825Z,12.15
2023-04-25T05:42:13.469Z,11.57
2023-04-25T05:44:40.224Z,8.00
2023-04-25T05:47:06.820Z,10.80
2023-04-25T05:49:33.466Z,10.32
2023-04-25T05:52:00.100Z,12.38
2023-04-25T05:54:26.833Z,13.95
2023-04-25T05:56:53.493Z,5.90
2023-04-25T05:59:20.128Z,9.70
2023-04-25T06:01:47.929Z,5.68
2023-04-25T06:04:14.731Z,11.00
2023-04-25T06:06:41.600Z,9.57
2023-04-25T06:09:08.321Z,13.80
2023-04-25T06:11:34.983Z,9.77
2023-04-25T06:14:01.821Z,9.20
2023-04-25T06:16:28.568Z,6.43
2023-04-25T06:18:55.308Z,11.73
2023-04-25T06:21:22.017Z,8.10
2023-04-25T06:23:48.984Z,11.27
2023-04-25T06:26:16.212Z,11.70
2023-04-25T06:28:42.902Z,15.13
2023-04-25T06:31:09.535Z,10.20
2023-04-25T06:33:36.251Z,8.43
2023-04-25T06:36:02.875Z,8.43
2023-04-25T06:38:29.429Z,8.85
2023-04-25T06:40:56.111Z,11.50
2023-04-25T06:43:22.697Z,15.45
2023-04-25T06:45:49.322Z,9.87
2023-04-25T06:48:16.483Z,10.27
2023-04-25T06:50:43.103Z,12.45
2023-04-25T06:53:09.844Z,10.35
2023-04-25T06:55:36.565Z,11.52
2023-04-25T06:58:04.231Z,7.03
2023-04-25T07:00:31.339Z,9.13
2023-04-25T07:02:58.442Z,8.05
2023-04-25T07:05:25.603Z,10.23
2023-04-25T07:07:52.191Z,17.35
2023-04-25T07:10:18.833Z,7.90
2023-04-25T07:12:45.442Z,10.55
2023-04-25T07:15:12.580Z,8.15
2023-04-25T07:17:39.418Z,7.85
2023-04-25T07:20:07.077Z,8.73
2023-04-25T07:22:34.062Z,8.73
2023-04-25T07:25:00.719Z,9.35
2023-04-25T07:27:27.396Z,8.07
2023-04-25T07:29:54.662Z,10.25
2023-04-25T07:32:21.429Z,12.30
2023-04-25T07:34:48.130Z,11.63
2023-04-25T07:37:15.345Z,13.88
2023-04-25T07:39:42.830Z,10.75
2023-04-25T07:42:09.592Z,8.65
2023-04-25T07:44:43.285Z,15.70
2023-04-25T07:47:10.759Z,9.90
2023-04-25T07:49:38.159Z,12.75
2023-04-25T07:52:07.007Z,12.48
2023-04-25T07:54:33.748Z,10.50
2023-04-25T07:57:00.687Z,13.40
2023-04-25T07:59:29.407Z,10.70
2023-04-25T08:01:58.305Z,9.02
2023-04-25T08:04:26.195Z,13.27
2023-04-25T08:06:54.569Z,8.02
2023-04-25T08:09:21.700Z,9.35
2023-04-25T08:11:48.373Z,8.80
2023-04-25T08:14:14.979Z,10.82
2023-04-25T08:16:41.865Z,8.70
2023-04-25T08:19:08.550Z,8.38
2023-04-25T08:21:35.185Z,6.22
2023-04-25T08:24:04.162Z,11.33
2023-04-25T08:26:31.065Z,7.97
2023-04-25T08:28:57.679Z,9.68
2023-04-25T08:31:24.292Z,6.45
2023-04-25T08:33:52.756Z,5.43
2023-04-25T08:36:31.474Z,6.50
2023-04-25T08:39:05.061Z,6.13
2023-04-25T08:41:31.998Z,9.90
2023-04-25T08:44:01.485Z,6.60
2023-04-25T08:46:28.791Z,6.68
2023-04-25T08:49:04.379Z,8.00
2023-04-25T08:51:33.764Z,8.63
2023-04-25T08:54:23.412Z,7.95
2023-04-25T08:56:58.960Z,7.13
2023-04-25T08:59:25.835Z,6.90
2023-04-25T09:01:52.817Z,9.30
2023-04-25T09:04:21.314Z,10.85
2023-04-25T09:06:49.206Z,7.25
2023-04-25T09:09:15.909Z,11.00
2023-04-25T09:11:42.640Z,10.60
2023-04-25T09:14:23.294Z,7.57
2023-04-25T09:17:00.592Z,9.25
2023-04-25T09:19:39.768Z,6.78
2023-04-25T09:22:08.913Z,5.53
2023-04-25T09:24:46.999Z,7.13
2023-04-25T09:27:19.842Z,8.77
2023-04-25T09:29:47.354Z,7.40
2023-04-25T09:32:20.144Z,7.00
2023-04-25T09:34:50.400Z,6.53
2023-04-25T09:37:27.813Z,7.97
2023-04-25T09:40:06.472Z,8.60
2023-04-25T09:42:35.500Z,7.88
2023-04-25T09:45:04.678Z,7.70
2023-04-25T09:47:31.892Z,7.38
2023-04-25T09:49:59.423Z,7.75
2023-04-25T09:52:26.404Z,6.97
2023-04-25T09:54:53.985Z,6.75
2023-04-25T09:57:25.494Z,8.13
2023-04-25T09:59:54.133Z,7.53
2023-04-25T10:02:26.213Z,5.80
2023-04-25T10:04:56.264Z,6.13
2023-04-25T10:07:29.806Z,5.22
2023-04-25T10:10:02.628Z,7.35
2023-04-25T10:12:29.581Z,6.65
2023-04-25T10:14:56.544Z,6.20
2023-04-25T10:17:24.241Z,5.13
2023-04-25T10:19:52.196Z,8.93
2023-04-25T10:22:27.076Z,8.63
2023-04-25T10:24:53.879Z,5.70
2023-04-25T10:27:20.886Z,4.82
2023-04-25T10:30:16.265Z,5.30
2023-04-25T10:32:43.918Z,7.30
2023-04-25T10:35:17.731Z,7.65
2023-04-25T10:38:14.477Z,5.18
2023-04-25T10:40:41.233Z,7.15
2023-04-25T10:43:32.963Z,5.67
2023-04-25T10:46:03.472Z,9.23
2023-04-25T10:48:31.426Z,4.25
2023-04-25T10:51:11.220Z,5.15
2023-04-25T10:53:38.109Z,5.57
2023-04-25T10:56:31.183Z,8.13
2023-04-25T10:59:08.043Z,5.47
2023-04-25T11:01:41.878Z,4.30
2023-04-25T11:04:22.385Z,8.27
2023-04-25T11:07:06.005Z,4.97
2023-04-25T11:09:35.214Z,4.57
2023-04-25T11:12:01.968Z,7.03
2023-04-25T11:14:28.668Z,8.45
2023-04-25T11:17:00.674Z,6.90
2023-04-25T11:19:29.877Z,7.68
2023-04-25T11:22:01.443Z,9.67
2023-04-25T11:24:39.997Z,4.70
2023-04-25T11:27:06.922Z,6.30
2023-04-25T11:29:35.060Z,11.57
2023-04-25T11:32:03.083Z,9.55
2023-04-25T11:34:31.769Z,7.53
2023-04-25T11:36:59.186Z,6.72
2023-04-25T11:39:27.355Z,13.45
2023-04-25T11:41:54.928Z,7.85
2023-04-25T11:44:22.328Z,5.20
2023-04-25T11:46:49.283Z,11.10
2023-04-25T11:49:16.638Z,8.02
2023-04-25T11:51:45.358Z,6.80
2023-04-25T11:54:13.332Z,6.43
2023-04-25T11:56:46.850Z,6.38
2023-04-25T11:59:14.287Z,4.07
2023-04-25T12:01:42.850Z,6.43
2023-04-25T12:04:24.094Z,5.28
2023-04-25T12:06:54.332Z,8.18
2023-04-25T12:09:28.142Z,5.85
2023-04-25T12:11:56.585Z,5.33
2023-04-25T12:14:25.014Z,7.60
2023-04-25T12:16:52.625Z,8.45
2023-04-25T12:19:20.910Z,8.35
2023-04-25T12:24:25.237Z,11.27
2023-04-25T12:27:05.428Z,6.10
2023-04-25T12:29:48.691Z,7.93
2023-04-25T12:32:17.808Z,5.18
2023-04-25T12:34:44.718Z,8.05
2023-04-25T12:37:11.600Z,9.03
2023-04-25T12:39:38.674Z,7.60
2023-04-25T12:42:07.581Z,6.65
2023-04-25T12:44:36.174Z,6.82
2023-04-25T12:47:03.969Z,7.88
2023-04-25T12:49:30.828Z,7.43
2023-04-25T12:51:57.458Z,4.78
2023-04-25T12:54:24.128Z,6.30
2023-04-25T12:56:51.562Z,4.68
2023-04-25T12:59:18.854Z,7.43
2023-04-25T13:01:46.429Z,4.03
2023-04-25T13:04:13.392Z,6.28
2023-04-25T13:06:40.436Z,5.28
2023-04-25T13:09:07.749Z,5.32
2023-04-25T13:11:34.412Z,8.38
2023-04-25T13:14:01.915Z,5.83
2023-04-25T13:16:28.556Z,7.18
2023-04-25T13:18:56.973Z,7.38
2023-04-25T13:21:23.583Z,6.72
2023-04-25T13:23:50.205Z,6.78
2023-04-25T13:26:17.454Z,6.87
2023-04-25T13:28:44.946Z,6.25
2023-04-25T13:31:11.918Z,6.35
2023-04-25T13:33:38.597Z,4.43
2023-04-25T13:36:05.331Z,7.38
2023-04-25T13:38:32.090Z,9.80
2023-04-25T13:40:58.713Z,6.72
2023-04-25T13:43:25.359Z,6.07
2023-04-25T13:45:52.593Z,10.38
2023-04-25T13:48:20.788Z,5.28
2023-04-25T13:50:47.524Z,9.30
2023-04-25T13:53:14.252Z,5.47
2023-04-25T13:55:41.157Z,6.72
2023-04-25T13:58:08.955Z,7.57
2023-04-25T14:00:40.362Z,8.38
2023-04-25T14:03:11.064Z,9.53
2023-04-25T14:05:41.026Z,7.30
2023-04-25T14:08:10.408Z,8.60
2023-04-25T14:10:37.808Z,8.95
2023-04-25T14:13:05.464Z,6.03
2023-04-25T14:15:35.661Z,5.83
2023-04-25T14:18:02.656Z,4.32
2023-04-25T14:20:29.730Z,7.82
2023-04-25T14:22:58.056Z,7.82
2023-04-25T14:25:25.396Z,7.93
2023-04-25T14:27:52.173Z,6.37
2023-04-25T14:30:20.224Z,7.65
2023-04-25T14:32:47.191Z,7.32
2023-04-25T14:35:14.128Z,7.78
2023-04-25T14:37:41.123Z,8.32
2023-04-25T14:40:13.931Z,6.07
2023-04-25T14:42:41.181Z,9.45
2023-04-25T14:45:09.443Z,7.40
2023-04-25T14:47:37.672Z,5.28
2023-04-25T14:50:05.535Z,4.57
2023-04-25T14:52:32.220Z,10.37
2023-04-25T14:55:01.357Z,9.30
2023-04-25T14:57:28.053Z,7.22
2023-04-25T14:59:54.648Z,6.97
2023-04-25T15:02:21.435Z,3.97
2023-04-25T15:04:48.238Z,3.97
2023-04-25T15:07:16.430Z,7.88
2023-04-25T15:09:44.962Z,5.88
2023-04-25T15:12:12.112Z,11.38
2023-04-25T15:14:38.673Z,4.85
2023-04-25T15:17:05.384Z,5.20
2023-04-25T15:19:32.146Z,5.28
2023-04-25T15:22:02.219Z,4.38
2023-04-25T15:24:29.945Z,7.60
2023-04-25T15:26:57.440Z,6.50
2023-04-25T15:29:24.008Z,6.87
2023-04-25T15:31:50.862Z,8.00
2023-04-25T15:34:17.470Z,10.45
2023-04-25T15:36:44.180Z,4.90
2023-04-25T15:39:10.905Z,7.03
2023-04-25T15:41:37.975Z,4.90
2023-04-25T15:44:05.210Z,6.93
2023-04-25T15:46:32.021Z,7.07
2023-04-25T15:48:58.721Z,6.68
2023-04-25T15:51:25.540Z,6.80
2023-04-25T15:53:52.261Z,6.80
2023-04-25T15:56:19.044Z,7.78
2023-04-25T15:58:45.691Z,6.05
2023-04-25T16:01:12.421Z,5.65
2023-04-25T16:03:39.415Z,4.40
2023-04-25T16:06:06.305Z,2.97
2023-04-25T16:08:35.754Z,11.90
2023-04-25T16:11:03.333Z,6.03
2023-04-25T16:13:30.177Z,5.03
2023-04-25T16:15:57.603Z,6.97
2023-04-25T16:18:24.324Z,5.43
2023-04-25T16:20:57.438Z,7.78
2023-04-25T16:23:24.121Z,7.60
2023-04-25T16:25:50.774Z,9.73
2023-04-25T16:28:17.630Z,6.88
2023-04-25T16:30:44.329Z,5.37
2023-04-25T16:33:10.978Z,6.30
2023-04-25T16:35:37.824Z,6.22
2023-04-25T16:38:05.316Z,8.43
2023-04-25T16:40:31.977Z,9.20
2023-04-25T16:42:58.686Z,5.90
2023-04-25T16:45:26.192Z,6.10
2023-04-25T16:47:52.863Z,9.50
2023-04-25T16:50:20.699Z,4.50
2023-04-25T16:52:47.463Z,5.65
2023-04-25T16:55:14.142Z,8.37
2023-04-25T16:57:41.248Z,8.02
2023-04-25T17:00:13.458Z,6.18
2023-04-25T17:02:40.256Z,6.03
2023-04-25T17:05:07.397Z,6.22
2023-04-25T17:07:34.164Z,12.33
2023-04-25T17:10:01.120Z,9.55
2023-04-25T17:12:27.822Z,7.25
2023-04-25T17:14:54.676Z,6.18
2023-04-25T17:17:21.352Z,4.15
2023-04-25T17:19:48.119Z,9.00
2023-04-25T17:22:14.812Z,9.43
2023-04-25T17:24:41.641Z,10.45
2023-04-25T17:27:08.356Z,10.10
2023-04-25T17:29:35.172Z,7.95
2023-04-25T17:32:01.969Z,4.40
2023-04-25T17:34:29.008Z,11.75
2023-04-25T17:36:55.703Z,8.07
2023-04-25T17:39:22.293Z,10.27
2023-04-25T17:41:49.050Z,8.68
2023-04-25T17:44:15.681Z,8.83
2023-04-25T17:46:42.417Z,8.63
2023-04-25T17:49:09.098Z,7.60
2023-04-25T17:51:35.770Z,7.13
2023-04-25T17:54:02.392Z,12.20
2023-04-25T17:56:29.149Z,7.43
2023-04-25T17:58:56.002Z,7.07
2023-04-25T18:01:23.030Z,6.35
2023-04-25T18:03:50.603Z,8.18
2023-04-25T18:06:18.365Z,7.18
2023-04-25T18:08:45.228Z,12.30
2023-04-25T18:11:12.234Z,7.53
2023-04-25T18:13:41.576Z,8.73
2023-04-25T18:16:08.953Z,8.48
2023-04-25T18:18:45.869Z,5.38
2023-04-25T18:21:12.622Z,10.00
2023-04-25T18:23:39.532Z,8.50
2023-04-25T18:26:11.211Z,14.48
2023-04-25T18:28:38.003Z,10.05
2023-04-25T18:31:04.779Z,8.60
2023-04-25T18:33:31.864Z,17.87
2023-04-25T18:35:59.849Z,11.07
2023-04-25T18:41:08.268Z,10.27
2023-04-25T18:43:43.441Z,9.15
2023-04-25T18:46:10.340Z,6.37
2023-04-25T18:48:37.387Z,7.93
2023-04-25T18:51:05.350Z,8.93
2023-04-25T18:53:32.204Z,6.32
2023-04-25T18:55:58.857Z,8.57
2023-04-25T18:58:26.328Z,9.87
2023-04-25T19:00:53.484Z,5.40
2023-04-25T19:03:21.093Z,5.50
2023-04-25T19:05:48.025Z,14.13
2023-04-25T19:08:14.653Z,8.05
2023-04-25T19:10:41.303Z,8.27
2023-04-25T19:13:08.457Z,8.55
2023-04-25T19:15:35.173Z,12.65
2023-04-25T19:18:02.659Z,8.70
2023-04-25T19:20:29.318Z,11.98
2023-04-25T19:22:55.928Z,11.73
2023-04-25T19:25:24.624Z,12.05
2023-04-25T19:27:51.398Z,9.88
2023-04-25T19:30:18.065Z,8.75
2023-04-25T19:32:45.414Z,13.10
2023-04-25T19:35:12.401Z,11.40
2023-04-25T19:37:41.071Z,10.82
2023-04-25T19:40:08.481Z,10.50
2023-04-25T19:42:35.581Z,9.95
2023-04-25T19:45:02.209Z,13.48
2023-04-25T19:47:28.971Z,7.63
2023-04-25T19:49:55.634Z,9.15
2023-04-25T19:52:22.373Z,14.48
2023-04-25T19:54:48.944Z,15.02
2023-04-25T19:57:15.602Z,7.80
2023-04-25T19:59:45.620Z,12.93
2023-04-25T20:02:12.260Z,12.30
2023-04-25T20:04:38.961Z,11.40
2023-04-25T20:07:05.658Z,12.02
2023-04-25T20:09:32.312Z,8.18
2023-04-25T20:11:58.975Z,10.80
2023-04-25T20:14:26.060Z,12.13
2023-04-25T20:16:53.614Z,13.65
2023-04-25T20:19:20.240Z,8.00
2023-04-25T20:21:47.158Z,9.77
2023-04-25T20:24:13.765Z,8.40
2023-04-25T20:26:40.510Z,10.02
2023-04-25T20:29:09.713Z,11.60
2023-04-25T20:31:37.033Z,8.73
2023-04-25T20:34:04.257Z,7.70
2023-04-25T20:36:32.060Z,13.23
2023-04-25T20:38:58.801Z,9.23
2023-04-25T20:41:25.550Z,9.57
2023-04-25T20:43:53.289Z,9.05
2023-04-25T20:46:20.518Z,11.60
2023-04-25T20:48:47.277Z,10.13
2023-04-25T20:51:14.309Z,7.47
2023-04-25T20:53:40.925Z,9.43
2023-04-25T20:56:07.586Z,8.20
2023-04-25T20:58:34.230Z,16.48
2023-04-25T21:01:01.337Z,6.83
2023-04-25T21:03:28.594Z,8.75
2023-04-25T21:05:55.419Z,10.13
2023-04-25T21:08:22.176Z,9.27
2023-04-25T21:10:48.796Z,13.95
2023-04-25T21:13:15.564Z,12.70
2023-04-25T21:15:42.243Z,8.57
2023-04-25T21:18:09.035Z,10.10
2023-04-25T21:20:36.074Z,8.35
2023-04-25T21:23:03.273Z,6.25
2023-04-25T21:25:33.737Z,14.60
2023-04-25T21:28:02.173Z,8.77
2023-04-25T21:30:29.017Z,8.07
2023-04-25T21:32:56.484Z,9.65
2023-04-25T21:35:23.285Z,9.63
2023-04-25T21:37:50.703Z,9.70
2023-04-25T21:40:17.599Z,11.60
2023-04-25T21:42:46.299Z,10.70
2023-04-25T21:45:13.214Z,9.77
2023-04-25T21:47:39.888Z,7.65
2023-04-25T21:50:07.718Z,6.80
2023-04-25T21:52:36.106Z,5.80
2023-04-25T21:55:02.853Z,13.43
2023-04-25T21:57:29.461Z,9.43
2023-04-25T21:59:56.744Z,13.88
2023-04-25T22:02:23.882Z,14.43
2023-04-25T22:04:51.390Z,10.43
2023-04-25T22:07:18.210Z,10.50
2023-04-25T22:09:54.490Z,6.43
2023-04-25T22:12:23.047Z,11.82
2023-04-25T22:14:50.203Z,9.87
2023-04-25T22:17:17.647Z,11.43
2023-04-25T22:19:44.726Z,9.65
2023-04-25T22:22:11.698Z,9.45
2023-04-25T22:24:38.744Z,8.05
2023-04-25T22:27:05.660Z,13.40
2023-04-25T22:29:32.831Z,10.73
2023-04-25T22:31:59.764Z,11.27
2023-04-25T22:34:26.548Z,8.25
2023-04-25T22:36:54.799Z,7.43
2023-04-25T22:39:21.434Z,11.03
2023-04-25T22:41:48.861Z,12.50
2023-04-25T22:44:15.635Z,9.70
2023-04-25T22:46:43.243Z,11.38
2023-04-25T22:49:09.984Z,14.52
2023-04-25T22:51:37.225Z,9.97
2023-04-25T22:54:05.414Z,9.52
2023-04-25T22:56:32.697Z,10.38
2023-04-25T22:58:59.381Z,8.38
2023-04-25T23:01:27.743Z,11.07
2023-04-25T23:03:54.942Z,9.23
2023-04-25T23:06:21.766Z,9.32
2023-04-25T23:08:48.469Z,14.90
2023-04-25T23:11:15.470Z,15.32
2023-04-25T23:13:42.178Z,14.65
2023-04-25T23:16:10.689Z,11.10
2023-04-25T23:18:38.112Z,11.77
2023-04-25T23:21:08.797Z,11.02
2023-04-25T23:23:36.485Z,11.85
2023-04-25T23:26:12.838Z,11.30
2023-04-25T23:28:41.587Z,12.93
2023-04-25T23:31:10.242Z,11.93
2023-04-25T23:33:37.311Z,9.93
2023-04-25T23:36:04.251Z,10.05
2023-04-25T23:38:31.772Z,13.07
2023-04-25T23:40:58.436Z,11.80
2023-04-25T23:43:25.068Z,12.45
2023-04-25T23:45:51.794Z,13.00
2023-04-25T23:48:18.579Z,10.05
2023-04-25T23:50:45.206Z,11.05
2023-04-25T23:53:11.908Z,14.57
2023-04-25T23:55:38.766Z,9.52
2023-04-25T23:58:05.412Z,10.43
